sensor_id;sensor_type;location;lat;lon;timestamp;pressure;altitude;pressure_sealevel;temperature;humidity
55347;BME280;41218;55.700;38.270;2023-02-27T00:04:17;98991.47;;;-1.97;64.59
55347;BME280;41218;55.700;38.270;2023-02-27T00:09:18;98985.97;;;-2.06;64.09
55347;BME280;41218;55.700;38.270;2023-02-27T00:14:18;98998.53;;;-2.10;64.47
55347;BME280;41218;55.700;38.270;2023-02-27T00:19:19;99018.47;;;-2.06;64.74
55347;BME280;41218;55.700;38.270;2023-02-27T00:24:20;99011.38;;;-2.16;64.57
55347;BME280;41218;55.700;38.270;2023-02-27T00:29:21;99015.69;;;-2.15;64.47
55347;BME280;41218;55.700;38.270;2023-02-27T00:34:22;99032.53;;;-2.18;64.95
55347;BME280;41218;55.700;38.270;2023-02-27T00:39:22;99025.41;;;-2.14;64.58
55347;BME280;41218;55.700;38.270;2023-02-27T00:44:23;99031.59;;;-2.13;64.82
55347;BME280;41218;55.700;38.270;2023-02-27T00:49:23;99050.88;;;-2.15;64.61
55347;BME280;41218;55.700;38.270;2023-02-27T00:54:24;99052.47;;;-2.14;64.67
55347;BME280;41218;55.700;38.270;2023-02-27T00:59:25;99053.97;;;-2.22;64.65
55347;BME280;41218;55.700;38.270;2023-02-27T01:04:25;99068.22;;;-2.16;64.56
55347;BME280;41218;55.700;38.270;2023-02-27T01:09:26;99071.63;;;-2.24;64.50
55347;BME280;41218;55.700;38.270;2023-02-27T01:14:26;99073.72;;;-2.21;64.00
55347;BME280;41218;55.700;38.270;2023-02-27T01:19:27;99085.97;;;-2.24;64.34
55347;BME280;41218;55.700;38.270;2023-02-27T01:24:27;99070.22;;;-2.22;63.93
55347;BME280;41218;55.700;38.270;2023-02-27T01:29:28;99087.38;;;-2.26;63.78
55347;BME280;41218;55.700;38.270;2023-02-27T01:34:28;99094.69;;;-2.27;63.51
55347;BME280;41218;55.700;38.270;2023-02-27T01:39:29;99107.91;;;-2.25;63.89
55347;BME280;41218;55.700;38.270;2023-02-27T01:50:11;99132.69;;;-2.32;63.22
55347;BME280;41218;55.700;38.270;2023-02-27T01:55:13;99144.13;;;-2.35;62.96
55347;BME280;41218;55.700;38.270;2023-02-27T02:00:15;99145.50;;;-2.37;62.81
55347;BME280;41218;55.700;38.270;2023-02-27T02:05:16;99154.31;;;-2.46;63.31
55347;BME280;41218;55.700;38.270;2023-02-27T02:10:17;99181.00;;;-2.39;63.17
55347;BME280;41218;55.700;38.270;2023-02-27T02:15:23;99192.63;;;-2.38;63.36
55347;BME280;41218;55.700;38.270;2023-02-27T02:42:27;99237.69;;;-2.48;63.69
55347;BME280;41218;55.700;38.270;2023-02-27T02:57:54;99264.88;;;-2.53;63.41
55347;BME280;41218;55.700;38.270;2023-02-27T03:03:36;99261.81;;;-2.65;63.13
55347;BME280;41218;55.700;38.270;2023-02-27T03:08:49;99286.38;;;-2.62;63.41
55347;BME280;41218;55.700;38.270;2023-02-27T03:14:10;99282.63;;;-2.66;63.49
55347;BME280;41218;55.700;38.270;2023-02-27T03:19:21;99290.09;;;-2.57;63.78
55347;BME280;41218;55.700;38.270;2023-02-27T03:24:26;99315.53;;;-2.58;63.78
55347;BME280;41218;55.700;38.270;2023-02-27T03:34:53;99331.50;;;-2.57;63.57
55347;BME280;41218;55.700;38.270;2023-02-27T03:40:43;99346.84;;;-2.52;63.70
55347;BME280;41218;55.700;38.270;2023-02-27T03:45:26;99359.44;;;-2.62;63.69
55347;BME280;41218;55.700;38.270;2023-02-27T03:50:28;99368.06;;;-2.59;63.46
55347;BME280;41218;55.700;38.270;2023-02-27T03:55:32;99371.91;;;-2.66;63.74
55347;BME280;41218;55.700;38.270;2023-02-27T04:00:35;99380.63;;;-2.69;63.89
55347;BME280;41218;55.700;38.270;2023-02-27T04:05:35;99402.78;;;-2.67;64.23
55347;BME280;41218;55.700;38.270;2023-02-27T04:16:42;99424.66;;;-2.63;63.75
55347;BME280;41218;55.700;38.270;2023-02-27T04:32:56;99426.22;;;-2.81;64.40
55347;BME280;41218;55.700;38.270;2023-02-27T04:38:08;99435.88;;;-2.75;64.19
55347;BME280;41218;55.700;38.270;2023-02-27T04:43:12;99449.94;;;-2.73;64.07
55347;BME280;41218;55.700;38.270;2023-02-27T04:48:21;99459.72;;;-2.77;64.56
55347;BME280;41218;55.700;38.270;2023-02-27T04:53:31;99477.25;;;-2.74;64.42
55347;BME280;41218;55.700;38.270;2023-02-27T04:58:39;99476.09;;;-2.68;64.82
55347;BME280;41218;55.700;38.270;2023-02-27T05:03:46;99472.00;;;-2.66;64.21
55347;BME280;41218;55.700;38.270;2023-02-27T05:14:18;99490.94;;;-2.66;64.28
55347;BME280;41218;55.700;38.270;2023-02-27T05:19:20;99498.28;;;-2.66;64.72
55347;BME280;41218;55.700;38.270;2023-02-27T05:34:48;99519.34;;;-2.63;64.82
55347;BME280;41218;55.700;38.270;2023-02-27T05:39:51;99525.91;;;-2.69;64.97
55347;BME280;41218;55.700;38.270;2023-02-27T05:44:54;99532.28;;;-2.60;64.80
55347;BME280;41218;55.700;38.270;2023-02-27T05:50:08;99536.63;;;-2.59;64.77
55347;BME280;41218;55.700;38.270;2023-02-27T05:55:16;99555.56;;;-2.59;64.89
55347;BME280;41218;55.700;38.270;2023-02-27T06:05:30;99560.91;;;-2.54;64.83
55347;BME280;41218;55.700;38.270;2023-02-27T06:10:31;99571.81;;;-2.59;65.02
55347;BME280;41218;55.700;38.270;2023-02-27T06:15:32;99577.47;;;-2.55;64.89
55347;BME280;41218;55.700;38.270;2023-02-27T06:20:33;99584.63;;;-2.46;65.01
55347;BME280;41218;55.700;38.270;2023-02-27T06:25:33;99576.31;;;-2.49;65.08
55347;BME280;41218;55.700;38.270;2023-02-27T06:30:34;99593.28;;;-2.44;64.92
55347;BME280;41218;55.700;38.270;2023-02-27T06:35:34;99599.56;;;-2.48;64.88
55347;BME280;41218;55.700;38.270;2023-02-27T06:40:35;99598.00;;;-2.54;65.06
55347;BME280;41218;55.700;38.270;2023-02-27T06:45:37;99616.03;;;-2.45;65.38
55347;BME280;41218;55.700;38.270;2023-02-27T06:50:38;99613.06;;;-2.43;65.20
55347;BME280;41218;55.700;38.270;2023-02-27T06:55:38;99615.25;;;-2.45;65.37
55347;BME280;41218;55.700;38.270;2023-02-27T07:00:41;99637.63;;;-2.39;65.17
55347;BME280;41218;55.700;38.270;2023-02-27T07:05:42;99643.34;;;-2.41;64.88
55347;BME280;41218;55.700;38.270;2023-02-27T07:10:44;99637.34;;;-2.38;65.12
55347;BME280;41218;55.700;38.270;2023-02-27T07:15:46;99643.91;;;-2.44;65.32
55347;BME280;41218;55.700;38.270;2023-02-27T07:20:49;99628.97;;;-2.42;65.18
55347;BME280;41218;55.700;38.270;2023-02-27T07:25:50;99648.31;;;-2.24;64.54
55347;BME280;41218;55.700;38.270;2023-02-27T07:30:53;99663.50;;;-2.28;65.11
55347;BME280;41218;55.700;38.270;2023-02-27T07:35:53;99654.59;;;-2.29;65.04
55347;BME280;41218;55.700;38.270;2023-02-27T07:40:54;99667.53;;;-2.26;65.12
55347;BME280;41218;55.700;38.270;2023-02-27T07:45:55;99686.09;;;-2.14;65.54
55347;BME280;41218;55.700;38.270;2023-02-27T07:50:56;99695.22;;;-2.05;65.12
55347;BME280;41218;55.700;38.270;2023-02-27T07:55:56;99689.09;;;-2.15;64.97
55347;BME280;41218;55.700;38.270;2023-02-27T08:00:57;99703.88;;;-2.03;65.04
55347;BME280;41218;55.700;38.270;2023-02-27T08:05:57;99710.88;;;-2.02;64.89
55347;BME280;41218;55.700;38.270;2023-02-27T08:10:58;99712.63;;;-2.11;65.22
55347;BME280;41218;55.700;38.270;2023-02-27T08:15:58;99722.06;;;-2.08;65.01
55347;BME280;41218;55.700;38.270;2023-02-27T08:20:59;99735.09;;;-2.10;64.92
55347;BME280;41218;55.700;38.270;2023-02-27T08:26:00;99737.81;;;-2.10;65.07
55347;BME280;41218;55.700;38.270;2023-02-27T08:31:00;99748.53;;;-2.00;65.18
55347;BME280;41218;55.700;38.270;2023-02-27T08:36:01;99730.66;;;-2.01;64.51
55347;BME280;41218;55.700;38.270;2023-02-27T08:41:02;99749.34;;;-1.99;64.74
55347;BME280;41218;55.700;38.270;2023-02-27T08:46:03;99743.91;;;-1.99;64.79
55347;BME280;41218;55.700;38.270;2023-02-27T08:51:04;99751.94;;;-1.89;64.41
55347;BME280;41218;55.700;38.270;2023-02-27T08:56:04;99743.66;;;-1.74;63.93
55347;BME280;41218;55.700;38.270;2023-02-27T09:01:05;99760.69;;;-1.68;63.98
55347;BME280;41218;55.700;38.270;2023-02-27T09:06:06;99756.09;;;-1.73;63.68
55347;BME280;41218;55.700;38.270;2023-02-27T09:11:06;99773.63;;;-1.65;63.81
55347;BME280;41218;55.700;38.270;2023-02-27T09:16:07;99779.47;;;-1.53;63.83
55347;BME280;41218;55.700;38.270;2023-02-27T09:21:08;99782.75;;;-1.56;63.78
55347;BME280;41218;55.700;38.270;2023-02-27T09:26:08;99796.25;;;-1.51;63.63
55347;BME280;41218;55.700;38.270;2023-02-27T09:31:09;99797.91;;;-1.55;63.51
55347;BME280;41218;55.700;38.270;2023-02-27T09:36:10;99810.91;;;-1.52;63.36
55347;BME280;41218;55.700;38.270;2023-02-27T09:46:33;99820.06;;;-1.72;63.13
55347;BME280;41218;55.700;38.270;2023-02-27T09:51:33;99812.75;;;-1.76;63.45
55347;BME280;41218;55.700;38.270;2023-02-27T09:56:51;99814.22;;;-1.84;63.04
55347;BME280;41218;55.700;38.270;2023-02-27T10:07:19;99839.16;;;-1.87;62.84
55347;BME280;41218;55.700;38.270;2023-02-27T10:17:44;99849.72;;;-1.86;63.03
55347;BME280;41218;55.700;38.270;2023-02-27T10:22:50;99839.44;;;-1.89;62.64
55347;BME280;41218;55.700;38.270;2023-02-27T10:27:55;99855.69;;;-1.89;62.96
55347;BME280;41218;55.700;38.270;2023-02-27T10:33:15;99844.38;;;-1.96;63.06
55347;BME280;41218;55.700;38.270;2023-02-27T10:38:27;99849.00;;;-1.96;62.65
55347;BME280;41218;55.700;38.270;2023-02-27T10:43:30;99857.34;;;-1.93;62.68
55347;BME280;41218;55.700;38.270;2023-02-27T10:48:31;99869.75;;;-1.87;62.54
55347;BME280;41218;55.700;38.270;2023-02-27T10:53:32;99869.81;;;-1.92;62.77
55347;BME280;41218;55.700;38.270;2023-02-27T10:58:34;99867.09;;;-1.92;62.93
55347;BME280;41218;55.700;38.270;2023-02-27T11:03:38;99877.34;;;-1.89;62.58
55347;BME280;41218;55.700;38.270;2023-02-27T11:08:39;99877.66;;;-1.90;62.89
55347;BME280;41218;55.700;38.270;2023-02-27T11:13:44;99887.66;;;-1.86;62.40
55347;BME280;41218;55.700;38.270;2023-02-27T11:18:46;99900.31;;;-1.76;62.82
55347;BME280;41218;55.700;38.270;2023-02-27T11:23:59;99901.88;;;-1.70;62.62
55347;BME280;41218;55.700;38.270;2023-02-27T11:34:48;99905.53;;;-1.55;62.92
55347;BME280;41218;55.700;38.270;2023-02-27T11:39:52;99902.56;;;-1.54;62.87
55347;BME280;41218;55.700;38.270;2023-02-27T11:45:02;99901.00;;;-1.36;62.49
55347;BME280;41218;55.700;38.270;2023-02-27T11:50:26;99917.72;;;-1.24;62.38
55347;BME280;41218;55.700;38.270;2023-02-27T11:55:31;99920.44;;;-1.24;62.28
55347;BME280;41218;55.700;38.270;2023-02-27T12:00:38;99925.09;;;-1.29;62.29
55347;BME280;41218;55.700;38.270;2023-02-27T12:05:50;99941.63;;;-1.31;62.41
55347;BME280;41218;55.700;38.270;2023-02-27T12:11:00;99941.50;;;-1.45;62.52
55347;BME280;41218;55.700;38.270;2023-02-27T12:16:35;99955.03;;;-1.45;62.76
55347;BME280;41218;55.700;38.270;2023-02-27T12:21:43;99955.38;;;-1.51;63.28
55347;BME280;41218;55.700;38.270;2023-02-27T12:26:51;99960.28;;;-1.53;63.08
55347;BME280;41218;55.700;38.270;2023-02-27T12:32:01;99970.00;;;-1.47;62.92
55347;BME280;41218;55.700;38.270;2023-02-27T12:37:18;99971.13;;;-1.53;62.76
55347;BME280;41218;55.700;38.270;2023-02-27T12:53:18;100003.03;;;-1.79;62.62
55347;BME280;41218;55.700;38.270;2023-02-27T13:03:55;100004.22;;;-2.01;62.01
55347;BME280;41218;55.700;38.270;2023-02-27T13:09:19;100017.50;;;-1.94;60.71
55347;BME280;41218;55.700;38.270;2023-02-27T13:14:39;100025.69;;;-2.10;60.53
55347;BME280;41218;55.700;38.270;2023-02-27T13:19:59;100029.25;;;-2.19;60.61
55347;BME280;41218;55.700;38.270;2023-02-27T13:25:11;100020.38;;;-2.30;60.83
55347;BME280;41218;55.700;38.270;2023-02-27T13:40:48;100041.75;;;-2.29;61.23
55347;BME280;41218;55.700;38.270;2023-02-27T13:45:54;100043.91;;;-2.26;60.39
55347;BME280;41218;55.700;38.270;2023-02-27T13:50:56;100045.28;;;-2.33;60.90
55347;BME280;41218;55.700;38.270;2023-02-27T13:56:20;100045.28;;;-2.33;61.03
55347;BME280;41218;55.700;38.270;2023-02-27T14:01:25;100057.44;;;-2.26;60.82
55347;BME280;41218;55.700;38.270;2023-02-27T14:06:27;100063.97;;;-2.27;60.94
55347;BME280;41218;55.700;38.270;2023-02-27T14:11:31;100075.91;;;-2.33;61.18
55347;BME280;41218;55.700;38.270;2023-02-27T14:22:00;100098.66;;;-2.44;60.16
55347;BME280;41218;55.700;38.270;2023-02-27T14:27:03;100085.97;;;-2.59;60.98
55347;BME280;41218;55.700;38.270;2023-02-27T14:32:04;100107.91;;;-2.55;60.58
55347;BME280;41218;55.700;38.270;2023-02-27T14:37:16;100101.94;;;-2.63;60.77
55347;BME280;41218;55.700;38.270;2023-02-27T14:47:36;100129.03;;;-2.73;60.94
55347;BME280;41218;55.700;38.270;2023-02-27T14:52:42;100136.34;;;-2.73;61.01
55347;BME280;41218;55.700;38.270;2023-02-27T14:58:17;100136.03;;;-2.72;61.01
55347;BME280;41218;55.700;38.270;2023-02-27T15:03:28;100147.16;;;-2.89;60.95
55347;BME280;41218;55.700;38.270;2023-02-27T15:08:37;100154.44;;;-2.94;61.09
55347;BME280;41218;55.700;38.270;2023-02-27T15:13:38;100170.94;;;-2.91;61.10
55347;BME280;41218;55.700;38.270;2023-02-27T15:18:39;100166.09;;;-3.04;61.29
55347;BME280;41218;55.700;38.270;2023-02-27T15:23:40;100158.78;;;-3.04;61.27
55347;BME280;41218;55.700;38.270;2023-02-27T15:28:40;100177.72;;;-3.04;61.45
55347;BME280;41218;55.700;38.270;2023-02-27T15:33:41;100164.19;;;-3.09;61.72
55347;BME280;41218;55.700;38.270;2023-02-27T15:38:42;100186.63;;;-3.13;61.53
55347;BME280;41218;55.700;38.270;2023-02-27T15:43:43;100189.59;;;-3.10;61.85
55347;BME280;41218;55.700;38.270;2023-02-27T15:48:43;100184.97;;;-3.14;62.02
55347;BME280;41218;55.700;38.270;2023-02-27T15:53:48;100194.19;;;-3.15;61.88
55347;BME280;41218;55.700;38.270;2023-02-27T15:58:51;100193.66;;;-3.17;62.00
55347;BME280;41218;55.700;38.270;2023-02-27T16:04:05;100201.22;;;-3.19;62.59
55347;BME280;41218;55.700;38.270;2023-02-27T16:09:27;100227.44;;;-3.15;62.13
55347;BME280;41218;55.700;38.270;2023-02-27T16:14:37;100229.63;;;-3.07;62.17
55347;BME280;41218;55.700;38.270;2023-02-27T16:19:39;100236.63;;;-3.21;62.16
55347;BME280;41218;55.700;38.270;2023-02-27T16:24:39;100253.38;;;-3.24;62.14
55347;BME280;41218;55.700;38.270;2023-02-27T16:29:42;100264.75;;;-3.17;62.43
55347;BME280;41218;55.700;38.270;2023-02-27T16:34:44;100260.16;;;-3.22;62.64
55347;BME280;41218;55.700;38.270;2023-02-27T16:39:45;100277.75;;;-3.09;62.44
55347;BME280;41218;55.700;38.270;2023-02-27T16:44:46;100278.56;;;-3.13;62.73
55347;BME280;41218;55.700;38.270;2023-02-27T16:49:46;100281.53;;;-3.20;62.55
55347;BME280;41218;55.700;38.270;2023-02-27T16:54:48;100281.53;;;-3.20;62.67
55347;BME280;41218;55.700;38.270;2023-02-27T16:59:49;100286.94;;;-3.20;62.77
55347;BME280;41218;55.700;38.270;2023-02-27T17:04:49;100300.97;;;-3.23;62.71
55347;BME280;41218;55.700;38.270;2023-02-27T17:09:51;100305.53;;;-3.29;62.78
55347;BME280;41218;55.700;38.270;2023-02-27T17:14:52;100318.53;;;-3.20;62.67
55347;BME280;41218;55.700;38.270;2023-02-27T17:19:52;100315.03;;;-3.21;62.67
55347;BME280;41218;55.700;38.270;2023-02-27T17:24:54;100306.59;;;-3.35;62.94
55347;BME280;41218;55.700;38.270;2023-02-27T17:29:54;100322.28;;;-3.27;62.47
55347;BME280;41218;55.700;38.270;2023-02-27T17:34:55;100329.03;;;-3.34;62.82
55347;BME280;41218;55.700;38.270;2023-02-27T17:39:56;100307.38;;;-3.39;62.78
55347;BME280;41218;55.700;38.270;2023-02-27T17:44:56;100311.44;;;-3.37;63.00
55347;BME280;41218;55.700;38.270;2023-02-27T17:49:57;100312.00;;;-3.35;62.86
55347;BME280;41218;55.700;38.270;2023-02-27T17:54:58;100316.34;;;-3.34;62.48
55347;BME280;41218;55.700;38.270;2023-02-27T17:59:59;100324.94;;;-3.42;62.68
55347;BME280;41218;55.700;38.270;2023-02-27T18:05:00;100330.91;;;-3.40;63.20
55347;BME280;41218;55.700;38.270;2023-02-27T18:10:01;100339.88;;;-3.29;63.19
55347;BME280;41218;55.700;38.270;2023-02-27T18:15:03;100331.72;;;-3.39;62.78
55347;BME280;41218;55.700;38.270;2023-02-27T18:20:04;100331.66;;;-3.50;62.74
55347;BME280;41218;55.700;38.270;2023-02-27T18:25:05;100338.13;;;-3.51;62.89
55347;BME280;41218;55.700;38.270;2023-02-27T18:30:07;100353.28;;;-3.50;62.60
55347;BME280;41218;55.700;38.270;2023-02-27T18:35:07;100346.81;;;-3.49;62.46
55347;BME280;41218;55.700;38.270;2023-02-27T18:40:11;100341.31;;;-3.59;62.82
55347;BME280;41218;55.700;38.270;2023-02-27T18:45:14;100338.06;;;-3.66;62.62
55347;BME280;41218;55.700;38.270;2023-02-27T18:50:15;100346.16;;;-3.61;62.92
55347;BME280;41218;55.700;38.270;2023-02-27T18:55:16;100341.63;;;-3.55;62.65
55347;BME280;41218;55.700;38.270;2023-02-27T19:00:18;100326.69;;;-3.68;62.82
55347;BME280;41218;55.700;38.270;2023-02-27T19:05:21;100333.69;;;-3.72;62.89
55347;BME280;41218;55.700;38.270;2023-02-27T19:10:21;100337.75;;;-3.75;63.10
55347;BME280;41218;55.700;38.270;2023-02-27T19:15:22;100348.00;;;-3.77;63.05
55347;BME280;41218;55.700;38.270;2023-02-27T19:20:23;100362.78;;;-3.85;63.45
55347;BME280;41218;55.700;38.270;2023-02-27T19:25:23;100370.34;;;-3.87;62.82
55347;BME280;41218;55.700;38.270;2023-02-27T19:30:24;100368.38;;;-3.96;62.91
55347;BME280;41218;55.700;38.270;2023-02-27T19:35:24;100368.59;;;-4.03;63.31
55347;BME280;41218;55.700;38.270;2023-02-27T19:40:25;100359.09;;;-4.06;63.45
55347;BME280;41218;55.700;38.270;2023-02-27T19:45:26;100369.94;;;-4.00;63.89
55347;BME280;41218;55.700;38.270;2023-02-27T19:50:27;100351.00;;;-4.06;63.84
55347;BME280;41218;55.700;38.270;2023-02-27T19:55:29;100352.03;;;-4.12;63.90
55347;BME280;41218;55.700;38.270;2023-02-27T20:00:29;100348.81;;;-4.09;63.51
55347;BME280;41218;55.700;38.270;2023-02-27T20:05:36;100340.72;;;-4.09;64.23
55347;BME280;41218;55.700;38.270;2023-02-27T20:10:36;100332.00;;;-4.21;64.21
55347;BME280;41218;55.700;38.270;2023-02-27T20:15:39;100319.78;;;-4.29;64.31
55347;BME280;41218;55.700;38.270;2023-02-27T20:20:40;100322.72;;;-4.30;64.47
55347;BME280;41218;55.700;38.270;2023-02-27T20:25:41;100335.19;;;-4.24;64.55
55347;BME280;41218;55.700;38.270;2023-02-27T20:30:42;100334.00;;;-4.38;64.79
55347;BME280;41218;55.700;38.270;2023-02-27T20:35:42;100343.63;;;-4.48;64.72
55347;BME280;41218;55.700;38.270;2023-02-27T20:40:43;100361.13;;;-4.50;65.16
55347;BME280;41218;55.700;38.270;2023-02-27T20:45:44;100356.50;;;-4.55;64.70
55347;BME280;41218;55.700;38.270;2023-02-27T20:50:44;100351.56;;;-4.63;65.22
55347;BME280;41218;55.700;38.270;2023-02-27T20:55:47;100333.91;;;-4.76;65.43
55347;BME280;41218;55.700;38.270;2023-02-27T21:00:48;100337.09;;;-4.79;65.99
55347;BME280;41218;55.700;38.270;2023-02-27T21:05:49;100346.28;;;-4.80;65.64
55347;BME280;41218;55.700;38.270;2023-02-27T21:10:49;100354.59;;;-4.81;65.65
55347;BME280;41218;55.700;38.270;2023-02-27T21:15:50;100346.91;;;-4.95;65.33
55347;BME280;41218;55.700;38.270;2023-02-27T21:20:51;100344.91;;;-5.05;65.43
55347;BME280;41218;55.700;38.270;2023-02-27T21:25:52;100354.56;;;-5.09;65.88
55347;BME280;41218;55.700;38.270;2023-02-27T21:30:52;100341.47;;;-5.22;66.42
55347;BME280;41218;55.700;38.270;2023-02-27T21:35:53;100353.63;;;-5.19;65.90
55347;BME280;41218;55.700;38.270;2023-02-27T21:40:54;100345.91;;;-5.33;65.90
55347;BME280;41218;55.700;38.270;2023-02-27T21:45:54;100348.34;;;-5.31;66.60
55347;BME280;41218;55.700;38.270;2023-02-27T21:50:59;100342.91;;;-5.36;66.06
55347;BME280;41218;55.700;38.270;2023-02-27T21:56:08;100346.59;;;-5.43;66.36
55347;BME280;41218;55.700;38.270;2023-02-27T22:01:17;100328.34;;;-5.57;66.40
55347;BME280;41218;55.700;38.270;2023-02-27T22:06:20;100327.78;;;-5.59;66.89
55347;BME280;41218;55.700;38.270;2023-02-27T22:11:21;100327.22;;;-5.61;66.83
55347;BME280;41218;55.700;38.270;2023-02-27T22:16:22;100339.28;;;-5.64;66.90
55347;BME280;41218;55.700;38.270;2023-02-27T22:21:25;100338.41;;;-5.70;66.88
55347;BME280;41218;55.700;38.270;2023-02-27T22:26:27;100323.50;;;-5.77;66.94
55347;BME280;41218;55.700;38.270;2023-02-27T22:31:31;100327.41;;;-5.85;67.27
55347;BME280;41218;55.700;38.270;2023-02-27T22:36:33;100335.97;;;-5.88;66.99
55347;BME280;41218;55.700;38.270;2023-02-27T22:41:35;100331.56;;;-5.94;66.99
55347;BME280;41218;55.700;38.270;2023-02-27T22:46:38;100322.00;;;-6.07;67.57
55347;BME280;41218;55.700;38.270;2023-02-27T22:51:40;100333.84;;;-6.08;67.04
55347;BME280;41218;55.700;38.270;2023-02-27T22:56:41;100348.59;;;-6.11;67.33
55347;BME280;41218;55.700;38.270;2023-02-27T23:01:42;100338.47;;;-6.20;67.26
55347;BME280;41218;55.700;38.270;2023-02-27T23:06:44;100340.59;;;-6.22;67.54
55347;BME280;41218;55.700;38.270;2023-02-27T23:11:45;100325.13;;;-6.32;67.33
55347;BME280;41218;55.700;38.270;2023-02-27T23:16:46;100324.53;;;-6.34;67.30
55347;BME280;41218;55.700;38.270;2023-02-27T23:21:47;100315.97;;;-6.48;67.02
55347;BME280;41218;55.700;38.270;2023-02-27T23:26:50;100317.91;;;-6.43;67.41
55347;BME280;41218;55.700;38.270;2023-02-27T23:31:51;100305.44;;;-6.50;67.25
55347;BME280;41218;55.700;38.270;2023-02-27T23:36:51;100294.41;;;-6.65;67.69
55347;BME280;41218;55.700;38.270;2023-02-27T23:41:52;100302.59;;;-6.60;67.88
55347;BME280;41218;55.700;38.270;2023-02-27T23:46:52;100301.09;;;-6.68;67.86
55347;BME280;41218;55.700;38.270;2023-02-27T23:51:53;100294.13;;;-6.69;67.91
55347;BME280;41218;55.700;38.270;2023-02-27T23:56:53;100279.19;;;-6.76;67.76
